createdAt,value
2019-03-09T00:00:32.807Z,56.30
2019-03-09T00:04:35.843Z,56.20
2019-03-09T00:08:38.843Z,56.30
2019-03-09T00:12:41.841Z,56.80
2019-03-09T00:16:44.864Z,56.80
2019-03-09T00:20:47.916Z,57.00
2019-03-09T00:24:55.398Z,56.50
2019-03-09T00:29:09.029Z,56.90
2019-03-09T00:33:12.051Z,56.60
2019-03-09T00:37:15.049Z,56.80
2019-03-09T00:41:18.058Z,56.50
2019-03-09T00:45:21.266Z,56.40
2019-03-09T00:49:24.284Z,56.60
2019-03-09T00:53:28.021Z,56.10
2019-03-09T00:57:31.026Z,56.40
2019-03-09T01:01:34.029Z,56.20
2019-03-09T01:05:37.053Z,56.30
2019-03-09T01:09:40.077Z,56.40
2019-03-09T01:13:43.046Z,56.40
2019-03-09T01:17:46.042Z,56.10
2019-03-09T01:21:49.044Z,56.20
2019-03-09T01:25:52.060Z,56.50
2019-03-09T01:29:55.168Z,56.10
2019-03-09T01:33:58.165Z,56.10
2019-03-09T01:38:01.729Z,55.80
2019-03-09T01:42:04.740Z,56.00
2019-03-09T01:46:07.742Z,55.90
2019-03-09T01:50:11.041Z,55.70
2019-03-09T01:54:16.014Z,56.00
2019-03-09T01:58:19.030Z,56.50
2019-03-09T02:02:22.034Z,56.60
2019-03-09T02:06:25.036Z,56.50
2019-03-09T02:10:28.150Z,56.20
2019-03-09T02:14:31.157Z,56.20
2019-03-09T02:18:34.197Z,56.00
2019-03-09T02:22:37.186Z,55.90
2019-03-09T02:26:40.175Z,56.00
2019-03-09T02:30:43.168Z,56.00
2019-03-09T02:34:46.489Z,55.90
2019-03-09T02:38:51.376Z,55.80
2019-03-09T02:42:54.381Z,56.10
2019-03-09T02:46:57.407Z,56.20
2019-03-09T02:51:00.410Z,56.40
2019-03-09T02:55:05.966Z,56.40
2019-03-09T02:59:08.960Z,56.60
2019-03-09T03:03:12.063Z,56.80
2019-03-09T03:07:15.075Z,57.50
2019-03-09T03:11:18.083Z,57.60
2019-03-09T03:15:33.181Z,57.80
2019-03-09T03:19:36.241Z,57.90
2019-03-09T03:23:39.233Z,57.60
2019-03-09T03:27:42.259Z,60.00
2019-03-09T03:31:46.251Z,61.30
2019-03-09T03:35:49.268Z,61.80
2019-03-09T03:39:52.326Z,61.90
2019-03-09T03:43:55.335Z,62.00
2019-03-09T03:47:58.350Z,61.50
2019-03-09T03:52:01.355Z,60.70
2019-03-09T03:56:05.693Z,60.90
2019-03-09T04:00:13.492Z,62.10
2019-03-09T04:04:16.604Z,64.00
2019-03-09T04:08:19.600Z,66.20
2019-03-09T04:12:22.806Z,67.50
2019-03-09T04:16:25.803Z,68.30
2019-03-09T04:20:28.806Z,69.30
2019-03-09T04:24:31.807Z,69.40
2019-03-09T04:28:34.810Z,69.20
2019-03-09T04:32:37.910Z,69.40
2019-03-09T04:36:40.918Z,70.20
2019-03-09T04:40:43.947Z,70.10
2019-03-09T04:44:46.947Z,69.90
2019-03-09T04:48:50.224Z,69.60
2019-03-09T04:52:53.213Z,69.40
2019-03-09T04:56:56.347Z,69.40
2019-03-09T05:00:59.346Z,69.70
2019-03-09T05:05:04.739Z,70.00
2019-03-09T05:09:42.835Z,70.10
2019-03-09T05:13:45.825Z,70.70
2019-03-09T05:17:48.833Z,70.70
2019-03-09T05:21:51.831Z,70.80
2019-03-09T05:25:54.830Z,70.80
2019-03-09T05:29:57.826Z,71.30
2019-03-09T05:34:00.825Z,71.00
2019-03-09T05:38:05.834Z,71.10
2019-03-09T05:42:08.873Z,71.20
2019-03-09T05:46:11.884Z,71.60
2019-03-09T05:50:14.884Z,71.50
2019-03-09T05:54:17.880Z,72.30
2019-03-09T05:58:21.223Z,71.70
2019-03-09T06:02:24.210Z,71.40
2019-03-09T06:06:28.287Z,71.30
2019-03-09T06:10:31.296Z,71.60
2019-03-09T06:14:34.306Z,71.70
2019-03-09T06:18:37.307Z,71.70
2019-03-09T06:22:40.292Z,71.80
2019-03-09T06:26:43.402Z,71.90
2019-03-09T06:30:46.394Z,71.90
2019-03-09T06:34:49.384Z,71.50
2019-03-09T06:39:04.580Z,71.50
2019-03-09T06:43:07.578Z,71.50
2019-03-09T06:47:10.585Z,72.30
2019-03-09T06:51:13.575Z,72.10
2019-03-09T06:55:16.567Z,72.60
2019-03-09T06:59:20.960Z,73.50
2019-03-09T07:03:23.942Z,73.50
2019-03-09T07:07:26.962Z,73.80
2019-03-09T07:11:29.996Z,74.20
2019-03-09T07:15:35.238Z,74.00
2019-03-09T07:19:38.236Z,74.00
2019-03-09T07:23:41.226Z,73.90
2019-03-09T07:27:56.774Z,73.70
2019-03-09T07:31:59.778Z,73.30
2019-03-09T07:36:03.138Z,72.10
2019-03-09T07:40:09.142Z,72.80
2019-03-09T07:44:12.167Z,71.70
2019-03-09T07:48:15.162Z,71.30
2019-03-09T07:52:32.305Z,69.80
2019-03-09T07:56:35.324Z,70.00
2019-03-09T08:00:39.300Z,69.40
2019-03-09T08:04:42.307Z,69.00
2019-03-09T08:08:45.318Z,69.80
2019-03-09T08:12:49.460Z,68.20
2019-03-09T08:16:52.463Z,67.80
2019-03-09T08:20:55.446Z,68.60
2019-03-09T08:24:58.478Z,68.70
2019-03-09T08:29:01.479Z,68.30
2019-03-09T08:33:04.475Z,68.40
2019-03-09T08:37:07.474Z,68.50
2019-03-09T08:41:10.506Z,68.10
2019-03-09T08:45:16.265Z,68.20
2019-03-09T08:49:19.259Z,67.20
2019-03-09T08:53:22.282Z,66.50
2019-03-09T08:57:25.403Z,66.00
2019-03-09T09:01:29.730Z,65.80
2019-03-09T09:05:32.816Z,66.00
2019-03-09T09:09:35.899Z,66.30
2019-03-09T09:13:39.026Z,66.10
2019-03-09T09:17:42.026Z,66.40
2019-03-09T09:21:45.113Z,66.50
2019-03-09T09:25:48.107Z,66.60
2019-03-09T09:29:51.423Z,66.40
2019-03-09T09:33:54.439Z,66.60
2019-03-09T09:37:57.421Z,66.40
2019-03-09T09:42:00.430Z,66.70
2019-03-09T09:46:03.447Z,66.90
2019-03-09T09:50:09.237Z,65.90
2019-03-09T09:54:12.248Z,65.30
2019-03-09T09:58:15.247Z,64.20
2019-03-09T10:02:18.367Z,64.60
2019-03-09T10:06:21.344Z,64.10
2019-03-09T10:10:24.363Z,63.90
2019-03-09T10:14:27.368Z,63.90
2019-03-09T10:18:30.370Z,63.50
2019-03-09T10:22:33.472Z,63.30
2019-03-09T10:26:36.479Z,62.90
2019-03-09T10:30:39.462Z,62.20
2019-03-09T10:34:42.462Z,62.00
2019-03-09T10:38:45.466Z,62.30
2019-03-09T10:42:48.495Z,62.40
2019-03-09T10:46:51.494Z,63.00
2019-03-09T10:50:54.513Z,62.90
2019-03-09T10:54:57.514Z,62.90
2019-03-09T10:59:00.538Z,62.70
2019-03-09T11:03:04.906Z,63.10
2019-03-09T11:07:08.003Z,62.50
2019-03-09T11:11:11.066Z,62.10
2019-03-09T11:15:14.054Z,62.00
2019-03-09T11:19:17.054Z,63.10
2019-03-09T11:23:20.056Z,63.20
2019-03-09T11:27:23.066Z,63.50
2019-03-09T11:31:26.092Z,63.50
2019-03-09T11:35:29.102Z,63.30
2019-03-09T11:39:32.098Z,62.80
2019-03-09T11:43:35.114Z,62.10
2019-03-09T11:47:38.141Z,61.90
2019-03-09T11:51:41.172Z,61.50
2019-03-09T11:55:44.171Z,61.80
2019-03-09T11:59:47.183Z,62.00
2019-03-09T12:03:52.971Z,62.50
2019-03-09T12:07:56.017Z,63.50
2019-03-09T12:12:00.839Z,64.10
2019-03-09T12:16:03.948Z,64.60
2019-03-09T12:20:08.532Z,64.70
2019-03-09T12:24:16.482Z,64.80
2019-03-09T12:28:16.666Z,64.90
2019-03-09T12:32:19.666Z,64.80
2019-03-09T12:36:22.659Z,64.70
2019-03-09T12:40:25.658Z,64.60
2019-03-09T12:44:28.659Z,64.90
2019-03-09T12:48:31.657Z,65.30
2019-03-09T12:52:34.641Z,65.00
2019-03-09T12:56:37.651Z,64.50
2019-03-09T13:00:40.712Z,64.30
2019-03-09T13:04:46.006Z,63.70
2019-03-09T13:08:49.012Z,63.30
2019-03-09T13:12:52.012Z,63.70
2019-03-09T13:16:55.035Z,64.30
2019-03-09T13:20:58.064Z,64.70
2019-03-09T13:25:01.055Z,64.20
2019-03-09T13:29:04.086Z,63.50
2019-03-09T13:33:07.084Z,63.60
2019-03-09T13:37:10.103Z,64.30
2019-03-09T13:41:13.115Z,64.70
2019-03-09T13:45:16.346Z,65.30
2019-03-09T13:49:19.371Z,65.80
2019-03-09T13:53:22.375Z,67.30
2019-03-09T13:57:25.370Z,68.80
2019-03-09T14:01:28.395Z,70.70
2019-03-09T14:05:32.393Z,71.70
2019-03-09T14:09:35.407Z,72.30
2019-03-09T14:13:38.442Z,72.50
2019-03-09T14:17:41.601Z,72.80
2019-03-09T14:21:44.703Z,73.10
2019-03-09T14:25:47.703Z,73.60
2019-03-09T14:29:51.002Z,73.50
2019-03-09T14:33:54.010Z,72.70
2019-03-09T14:37:56.997Z,72.70
2019-03-09T14:42:00.016Z,72.90
2019-03-09T14:46:03.073Z,72.20
2019-03-09T14:50:07.517Z,71.20
2019-03-09T14:54:10.502Z,70.90
2019-03-09T14:58:13.610Z,69.20
2019-03-09T15:02:16.603Z,69.10
2019-03-09T15:06:22.112Z,68.30
2019-03-09T15:10:25.413Z,67.40
2019-03-09T15:14:28.507Z,67.10
2019-03-09T15:18:31.801Z,66.50
2019-03-09T15:22:34.801Z,65.50
2019-03-09T15:26:37.803Z,64.90
2019-03-09T15:30:42.916Z,64.50
2019-03-09T15:34:46.022Z,63.70
2019-03-09T15:38:49.027Z,63.40
2019-03-09T15:42:52.337Z,62.20
2019-03-09T15:46:55.350Z,62.10
2019-03-09T15:50:58.360Z,61.60
2019-03-09T15:55:01.466Z,61.00
2019-03-09T15:59:04.823Z,60.60
2019-03-09T16:03:07.827Z,59.00
2019-03-09T16:07:11.854Z,58.60
2019-03-09T16:11:14.872Z,58.50
2019-03-09T16:15:17.977Z,58.20
2019-03-09T16:19:21.073Z,57.80
2019-03-09T16:23:24.154Z,57.80
2019-03-09T16:27:27.200Z,57.80
2019-03-09T16:31:30.270Z,60.00
2019-03-09T16:35:33.262Z,57.90
2019-03-09T16:39:36.250Z,56.20
2019-03-09T16:43:39.263Z,56.10
2019-03-09T16:47:42.248Z,56.20
2019-03-09T16:51:45.263Z,56.10
2019-03-09T16:55:48.398Z,55.80
2019-03-09T16:59:51.461Z,56.20
2019-03-09T17:03:54.556Z,56.60
2019-03-09T17:08:01.666Z,56.70
2019-03-09T17:12:06.605Z,57.20
2019-03-09T17:16:09.918Z,57.20
2019-03-09T17:20:14.436Z,57.60
2019-03-09T17:24:17.517Z,57.80
2019-03-09T17:28:20.619Z,58.10
2019-03-09T17:32:25.946Z,58.60
2019-03-09T17:36:28.857Z,58.80
2019-03-09T17:40:31.858Z,59.10
2019-03-09T17:44:34.881Z,58.60
2019-03-09T17:48:37.881Z,58.20
2019-03-09T17:52:40.889Z,57.20
2019-03-09T17:56:44.249Z,56.80
2019-03-09T18:00:47.821Z,56.40
2019-03-09T18:04:50.856Z,56.00
2019-03-09T18:08:54.834Z,55.60
2019-03-09T18:12:57.918Z,55.10
2019-03-09T18:17:00.926Z,55.10
2019-03-09T18:21:03.961Z,54.80
2019-03-09T18:25:07.058Z,54.50
2019-03-09T18:29:10.129Z,54.50
2019-03-09T18:33:13.355Z,54.50
2019-03-09T18:37:16.349Z,54.60
2019-03-09T18:41:19.355Z,54.40
2019-03-09T18:45:23.327Z,54.60
2019-03-09T18:49:26.353Z,54.10
2019-03-09T18:53:29.354Z,54.40
2019-03-09T18:57:32.364Z,54.50
2019-03-09T19:01:35.370Z,54.30
2019-03-09T19:05:38.371Z,54.20
2019-03-09T19:09:41.509Z,54.50
2019-03-09T19:13:44.522Z,55.00
2019-03-09T19:17:47.775Z,55.20
2019-03-09T19:21:50.815Z,55.20
2019-03-09T19:25:53.964Z,55.20
2019-03-09T19:29:56.990Z,56.40
2019-03-09T19:34:00.115Z,61.70
2019-03-09T19:38:03.354Z,65.20
2019-03-09T19:42:06.513Z,66.90
2019-03-09T19:46:09.596Z,69.10
2019-03-09T19:50:20.378Z,70.90
2019-03-09T19:54:23.402Z,71.70
2019-03-09T19:58:26.390Z,70.70
2019-03-09T20:02:29.391Z,70.70
2019-03-09T20:06:32.405Z,70.60
2019-03-09T20:10:37.278Z,70.50
2019-03-09T20:14:40.316Z,69.70
2019-03-09T20:18:43.291Z,68.70
2019-03-09T20:22:46.390Z,66.80
2019-03-09T20:26:49.386Z,65.40
2019-03-09T20:30:52.508Z,66.20
2019-03-09T20:34:55.494Z,68.70
2019-03-09T20:38:58.688Z,70.30
2019-03-09T20:43:01.666Z,70.70
2019-03-09T20:47:04.678Z,71.80
2019-03-09T20:51:07.673Z,71.20
2019-03-09T20:55:10.866Z,71.50
2019-03-09T20:59:13.862Z,71.40
2019-03-09T21:03:16.847Z,70.90
2019-03-09T21:07:19.832Z,68.70
2019-03-09T21:11:24.275Z,65.40
2019-03-09T21:15:27.253Z,63.80
2019-03-09T21:19:30.244Z,63.10
2019-03-09T21:23:35.399Z,62.00
2019-03-09T21:27:38.187Z,61.70
2019-03-09T21:31:41.182Z,61.00
2019-03-09T21:35:44.194Z,60.70
2019-03-09T21:39:47.191Z,60.30
2019-03-09T21:43:50.186Z,59.80
2019-03-09T21:47:53.171Z,59.30
2019-03-09T21:51:56.167Z,58.50
2019-03-09T21:55:59.164Z,58.20
2019-03-09T22:00:04.762Z,58.00
2019-03-09T22:04:07.758Z,57.70
2019-03-09T22:08:10.739Z,57.20
2019-03-09T22:12:15.136Z,57.20
2019-03-09T22:16:18.143Z,57.10
2019-03-09T22:20:21.134Z,57.20
2019-03-09T22:24:24.115Z,56.40
2019-03-09T22:28:27.127Z,56.10
2019-03-09T22:32:30.127Z,56.00
2019-03-09T22:36:33.135Z,56.00
2019-03-09T22:40:36.128Z,55.90
2019-03-09T22:44:39.145Z,55.90
2019-03-09T22:48:42.138Z,56.00
2019-03-09T22:52:45.322Z,56.20
2019-03-09T22:56:48.313Z,56.00
2019-03-09T23:00:51.628Z,56.00
2019-03-09T23:04:54.626Z,55.80
2019-03-09T23:08:57.920Z,55.50
2019-03-09T23:13:01.694Z,56.30
2019-03-09T23:17:04.701Z,55.70
2019-03-09T23:21:07.698Z,55.50
2019-03-09T23:25:12.198Z,55.50
2019-03-09T23:29:15.210Z,55.60
2019-03-09T23:33:18.234Z,55.60
2019-03-09T23:37:21.237Z,55.60
2019-03-09T23:41:24.237Z,55.70
2019-03-09T23:45:27.376Z,55.70
2019-03-09T23:49:30.455Z,56.20
2019-03-09T23:53:33.572Z,56.30
2019-03-09T23:57:36.666Z,56.60
